Time;durP1;ratioP1;P1;durP2;ratioP2;P2;SDS_P1;SDS_P2;PMS_P1;PMS_P2;Temp;Humidity;BMP_temperature;BMP_pressure;BME280_temperature;BME280_humidity;BME280_pressure;Samples;Min_cycle;Max_cycle;Signal;HPM_P1;HPM_P2
2023/12/07 00:00:17;;;;;;;92.45;35.47;;;0.00;99.90;;;;;;5008726;28;20021;-58
2023/12/07 00:02:43;;;;;;;74.93;30.98;;;0.00;99.90;;;;;;5027074;28;20038;-57
2023/12/07 00:05:08;;;;;;;83.00;33.35;;;0.00;99.90;;;;;;5026602;28;20064;-58
2023/12/07 00:07:34;;;;;;;107.70;36.22;;;0.00;99.90;;;;;;5029847;28;20512;-56
2023/12/07 00:09:59;;;;;;;87.43;33.38;;;0.00;99.90;;;;;;5023159;28;20064;-56
2023/12/07 00:12:25;;;;;;;92.45;35.92;;;0.00;99.90;;;;;;5028863;28;20117;-57
2023/12/07 00:14:50;;;;;;;83.22;34.90;;;0.00;99.90;;;;;;5028933;28;20033;-58
2023/12/07 00:17:16;;;;;;;82.55;33.78;;;0.10;99.90;;;;;;5029131;28;20118;-57
2023/12/07 00:19:41;;;;;;;89.97;34.38;;;0.00;99.90;;;;;;5028769;28;20065;-59
2023/12/07 00:22:07;;;;;;;86.18;33.92;;;0.00;99.90;;;;;;5030872;28;20068;-57
2023/12/07 00:24:33;;;;;;;86.88;32.05;;;0.00;99.90;;;;;;5028620;28;20021;-55
2023/12/07 00:26:58;;;;;;;70.30;31.58;;;0.00;99.90;;;;;;5015179;28;20041;-58
2023/12/07 00:29:24;;;;;;;69.95;29.80;;;0.00;99.90;;;;;;5024059;28;20033;-59
2023/12/07 00:31:49;;;;;;;94.00;35.25;;;0.00;99.90;;;;;;5023862;28;20030;-55
2023/12/07 00:34:17;;;;;;;85.10;36.55;;;0.00;99.90;;;;;;4996770;28;20069;-58
2023/12/07 00:36:42;;;;;;;74.50;30.40;;;0.00;99.90;;;;;;5024873;28;20040;-57
2023/12/07 00:39:08;;;;;;;92.97;35.50;;;0.00;99.90;;;;;;5024995;28;20405;-56
2023/12/07 00:41:34;;;;;;;87.70;35.47;;;0.00;99.90;;;;;;5025892;28;20040;-55
2023/12/07 00:43:59;;;;;;;78.85;33.17;;;0.00;99.90;;;;;;5024920;28;20025;-59
2023/12/07 00:46:25;;;;;;;83.28;31.85;;;0.00;99.90;;;;;;5027959;28;20033;-58
2023/12/07 00:48:50;;;;;;;71.47;31.73;;;0.00;99.90;;;;;;5029532;28;20022;-60
2023/12/07 00:51:16;;;;;;;78.72;30.88;;;0.00;99.90;;;;;;5027663;28;20030;-57
2023/12/07 00:53:42;;;;;;;76.85;32.53;;;0.00;99.90;;;;;;5023618;28;20025;-56
2023/12/07 00:56:08;;;;;;;89.40;37.50;;;0.10;99.90;;;;;;5010881;28;20151;-60
2023/12/07 00:58:33;;;;;;;87.32;35.58;;;0.10;99.90;;;;;;5025669;28;20525;-57
2023/12/07 01:00:59;;;;;;;87.47;33.88;;;0.10;99.90;;;;;;5025244;28;20025;-58
2023/12/07 01:03:25;;;;;;;89.65;35.42;;;0.00;99.90;;;;;;5027907;28;20668;-55
2023/12/07 01:05:50;;;;;;;66.78;30.10;;;0.10;99.90;;;;;;5009130;28;20029;-59
2023/12/07 01:08:16;;;;;;;81.05;31.58;;;0.00;99.90;;;;;;5025928;28;20030;-60
2023/12/07 01:10:41;;;;;;;89.35;33.63;;;0.00;99.90;;;;;;5005279;28;20068;-59
2023/12/07 01:13:07;;;;;;;81.63;34.30;;;0.10;99.90;;;;;;5026244;28;20029;-57
2023/12/07 01:15:32;;;;;;;80.25;32.35;;;0.10;99.90;;;;;;5024574;28;20025;-57
2023/12/07 01:17:58;;;;;;;106.70;37.90;;;0.10;99.90;;;;;;5030274;28;20131;-56
2023/12/07 01:20:23;;;;;;;78.50;32.67;;;0.00;99.90;;;;;;5022531;28;20138;-55
2023/12/07 01:22:49;;;;;;;84.45;36.40;;;0.00;99.90;;;;;;5023368;28;20034;-58
2023/12/07 01:25:19;;;;;;;91.53;35.88;;;0.00;99.90;;;;;;5016741;28;20648;-59
2023/12/07 01:27:45;;;;;;;94.35;35.88;;;0.10;99.90;;;;;;5006521;28;20026;-59
2023/12/07 01:30:11;;;;;;;98.22;37.30;;;0.10;99.90;;;;;;5017997;28;20116;-56
2023/12/07 01:32:36;;;;;;;79.55;36.83;;;0.10;99.90;;;;;;5020631;28;20030;-57
2023/12/07 01:35:02;;;;;;;96.88;38.15;;;0.10;99.90;;;;;;5019829;28;20044;-55
2023/12/07 01:37:29;;;;;;;86.65;36.25;;;0.10;99.90;;;;;;5020757;28;20401;-55
2023/12/07 01:39:54;;;;;;;97.75;38.28;;;0.10;99.90;;;;;;5020752;28;20022;-58
2023/12/07 01:42:20;;;;;;;100.35;37.95;;;0.10;99.90;;;;;;5006931;28;20028;-58
2023/12/07 01:44:46;;;;;;;91.35;35.42;;;0.10;99.90;;;;;;5018453;28;20025;-58
2023/12/07 01:47:11;;;;;;;91.22;37.63;;;0.10;99.90;;;;;;5019762;28;20034;-57
2023/12/07 01:49:37;;;;;;;97.25;37.90;;;0.10;99.90;;;;;;5002353;28;20052;-56
2023/12/07 01:52:03;;;;;;;94.13;37.13;;;0.10;99.90;;;;;;5006985;28;20025;-58
2023/12/07 01:54:30;;;;;;;84.22;34.65;;;0.10;99.90;;;;;;5021248;28;20052;-57
2023/12/07 01:56:56;;;;;;;82.35;35.10;;;0.10;99.90;;;;;;5023133;28;20022;-58
2023/12/07 01:59:22;;;;;;;92.22;37.25;;;0.10;99.90;;;;;;5003814;28;20056;-59
2023/12/07 02:01:47;;;;;;;83.80;32.83;;;0.10;99.90;;;;;;5020464;28;20021;-58
2023/12/07 02:04:13;;;;;;;85.88;36.95;;;0.10;99.90;;;;;;5019381;28;20024;-59
2023/12/07 02:06:39;;;;;;;87.63;36.00;;;0.10;99.90;;;;;;5005270;28;20033;-57
2023/12/07 02:09:05;;;;;;;78.53;35.88;;;0.10;99.90;;;;;;5012378;28;20086;-60
2023/12/07 02:11:31;;;;;;;99.03;38.03;;;0.10;99.90;;;;;;5018283;28;20080;-58
2023/12/07 02:13:57;;;;;;;76.18;36.78;;;0.10;99.90;;;;;;5018282;28;20514;-60
2023/12/07 02:17:04;;;;;;;82.43;37.13;;;0.10;99.90;;;;;;5020074;28;20018;-59
2023/12/07 02:19:47;;;;;;;84.75;33.63;;;0.10;99.90;;;;;;5007235;28;20611;-58
2023/12/07 02:22:21;;;;;;;75.60;34.08;;;0.10;99.90;;;;;;5017103;28;20426;-59
2023/12/07 02:25:07;;;;;;;81.30;35.60;;;0.10;99.90;;;;;;5020970;28;20018;-59
2023/12/07 02:27:40;;;;;;;87.32;34.22;;;0.10;99.90;;;;;;5018927;28;20029;-60
2023/12/07 02:30:10;;;;;;;82.22;31.15;;;0.10;99.90;;;;;;5021093;28;20021;-60
2023/12/07 02:32:37;;;;;;;71.40;32.58;;;0.10;99.90;;;;;;5024504;28;20018;-58
2023/12/07 02:35:04;;;;;;;81.07;32.88;;;0.10;99.90;;;;;;5029160;28;20050;-58
2023/12/07 02:37:40;;;;;;;73.18;31.30;;;0.10;99.90;;;;;;5009237;28;20120;-60
2023/12/07 02:40:10;;;;;;;71.78;30.05;;;0.10;99.90;;;;;;5026792;28;20041;-59
2023/12/07 02:42:37;;;;;;;78.63;31.67;;;0.10;99.90;;;;;;5025345;28;20021;-59
2023/12/07 02:45:04;;;;;;;76.85;32.95;;;0.10;99.90;;;;;;5030397;28;20044;-59
2023/12/07 02:47:30;;;;;;;73.05;33.95;;;0.10;99.90;;;;;;5011339;28;20065;-59
2023/12/07 02:49:55;;;;;;;85.35;35.97;;;0.10;99.90;;;;;;5029761;28;20057;-58
2023/12/07 02:52:21;;;;;;;65.60;31.65;;;0.10;99.90;;;;;;5027677;28;20465;-59
2023/12/07 02:54:48;;;;;;;72.53;33.00;;;0.10;99.90;;;;;;5016236;28;20024;-59
2023/12/07 02:57:14;;;;;;;76.57;33.05;;;0.10;99.90;;;;;;5031504;28;20405;-54
2023/12/07 02:59:40;;;;;;;72.07;30.48;;;0.10;99.90;;;;;;5030887;28;20108;-56
2023/12/07 03:02:05;;;;;;;73.80;32.83;;;0.10;99.90;;;;;;5029276;28;20064;-58
2023/12/07 03:04:31;;;;;;;83.60;32.72;;;0.10;99.90;;;;;;5027991;28;20061;-59
2023/12/07 03:06:57;;;;;;;73.00;30.95;;;0.10;99.90;;;;;;5028753;28;20532;-60
2023/12/07 03:09:23;;;;;;;79.05;33.78;;;0.10;99.90;;;;;;5033143;28;20017;-58
2023/12/07 03:11:48;;;;;;;94.53;35.72;;;0.10;99.90;;;;;;5027595;28;20848;-58
2023/12/07 03:14:14;;;;;;;78.65;30.55;;;0.10;99.90;;;;;;5028005;28;20029;-58
2023/12/07 03:16:39;;;;;;;75.07;31.27;;;0.10;99.90;;;;;;5024925;28;20018;-57
2023/12/07 03:19:05;;;;;;;78.68;32.80;;;0.10;99.90;;;;;;5024681;28;20035;-54
2023/12/07 03:21:30;;;;;;;85.38;34.45;;;0.10;99.90;;;;;;5029441;28;20026;-55
2023/12/07 03:23:56;;;;;;;90.35;36.10;;;0.10;99.90;;;;;;5024665;28;20120;-55
2023/12/07 03:26:21;;;;;;;83.80;33.60;;;0.20;99.90;;;;;;5029558;28;20114;-55
2023/12/07 03:28:47;;;;;;;70.80;30.48;;;0.10;99.90;;;;;;5026420;28;20034;-57
2023/12/07 03:31:12;;;;;;;75.72;30.98;;;0.10;99.90;;;;;;5029601;28;20026;-57
2023/12/07 03:33:38;;;;;;;84.85;32.97;;;0.10;99.90;;;;;;5024628;28;20042;-56
2023/12/07 03:36:04;;;;;;;75.90;30.65;;;0.10;99.90;;;;;;5030260;28;20030;-58
2023/12/07 03:38:30;;;;;;;77.28;32.55;;;0.10;99.90;;;;;;5034613;28;20049;-53
2023/12/07 03:40:55;;;;;;;71.25;30.67;;;0.10;99.90;;;;;;5025821;28;20697;-58
2023/12/07 03:43:21;;;;;;;83.30;32.40;;;0.10;99.90;;;;;;5031814;28;20041;-53
2023/12/07 03:45:47;;;;;;;62.17;29.17;;;0.20;99.90;;;;;;5029645;28;20513;-53
2023/12/07 03:48:12;;;;;;;62.85;29.38;;;0.10;99.90;;;;;;5030239;28;20231;-54
2023/12/07 03:50:38;;;;;;;73.72;30.90;;;0.10;99.90;;;;;;5030518;28;20413;-55
2023/12/07 03:53:04;;;;;;;72.03;31.17;;;0.10;99.90;;;;;;5025462;28;20053;-55
2023/12/07 03:55:29;;;;;;;75.32;31.98;;;0.10;99.90;;;;;;5011479;28;20030;-54
2023/12/07 03:57:55;;;;;;;74.47;30.23;;;0.20;99.90;;;;;;5027542;28;20036;-56
2023/12/07 04:00:21;;;;;;;70.20;30.98;;;0.20;99.90;;;;;;5028686;28;20021;-58
2023/12/07 04:02:46;;;;;;;68.90;28.80;;;0.20;99.90;;;;;;5032347;28;20433;-57
2023/12/07 04:05:12;;;;;;;74.22;30.08;;;0.20;99.90;;;;;;5032525;28;20029;-56
2023/12/07 04:07:38;;;;;;;75.15;33.05;;;0.10;99.90;;;;;;5023949;28;20033;-56
2023/12/07 04:10:06;;;;;;;60.95;29.27;;;0.10;99.90;;;;;;5031456;28;20447;-54
2023/12/07 04:12:31;;;;;;;62.67;28.08;;;0.10;99.90;;;;;;5031185;28;20171;-55
2023/12/07 04:14:57;;;;;;;70.57;32.22;;;0.10;99.90;;;;;;5014213;28;20112;-58
2023/12/07 04:17:22;;;;;;;56.15;27.35;;;0.20;99.90;;;;;;5026832;28;20605;-56
2023/12/07 04:19:48;;;;;;;61.00;27.50;;;0.10;99.90;;;;;;5031844;22;20016;-84
2023/12/07 04:22:14;;;;;;;55.83;25.23;;;0.10;99.90;;;;;;5023705;28;20409;-85
2023/12/07 04:24:39;;;;;;;63.05;27.20;;;0.10;99.90;;;;;;5019509;28;20148;-85
2023/12/07 04:27:05;;;;;;;68.40;28.73;;;0.10;99.90;;;;;;5020695;28;20221;-84
2023/12/07 04:29:30;;;;;;;67.38;26.40;;;0.10;99.90;;;;;;5022249;28;20040;-84
2023/12/07 04:31:56;;;;;;;66.63;28.35;;;0.10;99.90;;;;;;5029475;28;20539;-84
2023/12/07 04:34:21;;;;;;;62.75;26.02;;;0.10;99.90;;;;;;5023464;28;20124;-84
2023/12/07 04:36:47;;;;;;;54.22;25.60;;;0.10;99.90;;;;;;5019914;28;20052;-84
2023/12/07 04:39:13;;;;;;;63.40;28.30;;;0.10;99.90;;;;;;5027238;28;20021;-84
2023/12/07 04:41:38;;;;;;;60.45;28.15;;;0.10;99.90;;;;;;5022314;28;20045;-84
2023/12/07 04:44:04;;;;;;;59.65;27.75;;;0.10;99.90;;;;;;5020767;28;20061;-84
2023/12/07 04:46:30;;;;;;;52.75;24.83;;;0.20;99.90;;;;;;5014190;28;20041;-84
2023/12/07 04:48:55;;;;;;;50.88;26.10;;;0.10;99.90;;;;;;5012270;28;20619;-84
2023/12/07 04:51:21;;;;;;;47.97;23.92;;;0.10;99.90;;;;;;5024193;28;20473;-85
2023/12/07 04:53:47;;;;;;;58.63;25.40;;;0.10;99.90;;;;;;5024157;28;20022;-84
2023/12/07 04:56:13;;;;;;;55.63;26.25;;;0.10;99.90;;;;;;5018159;28;20075;-85
2023/12/07 04:58:39;;;;;;;56.15;27.45;;;0.10;99.90;;;;;;5016204;28;20041;-84
2023/12/07 05:01:04;;;;;;;68.30;31.33;;;0.10;99.90;;;;;;5013171;28;20037;-84
2023/12/07 05:03:30;;;;;;;64.03;26.10;;;0.10;99.90;;;;;;5012876;28;20032;-85
2023/12/07 05:05:55;;;;;;;57.88;27.25;;;0.10;99.90;;;;;;5015461;28;20565;-84
2023/12/07 05:08:21;;;;;;;60.90;27.98;;;0.10;99.90;;;;;;5030113;28;20056;-84
2023/12/07 05:10:47;;;;;;;61.92;28.48;;;0.10;99.90;;;;;;5013988;28;20021;-85
2023/12/07 05:13:12;;;;;;;65.07;27.58;;;0.10;99.90;;;;;;5013330;28;20384;-84
2023/12/07 05:15:38;;;;;;;62.55;28.27;;;0.10;99.90;;;;;;5014052;28;20025;-84
2023/12/07 05:18:04;;;;;;;57.95;26.05;;;0.10;99.90;;;;;;5011064;28;20021;-84
2023/12/07 05:20:30;;;;;;;61.55;27.98;;;0.20;99.90;;;;;;5014232;28;20029;-84
2023/12/07 05:22:56;;;;;;;55.95;26.73;;;0.10;99.90;;;;;;5016519;28;20029;-85
2023/12/07 05:25:21;;;;;;;51.90;26.95;;;0.10;99.90;;;;;;5012468;28;20018;-85
2023/12/07 05:27:47;;;;;;;60.65;28.88;;;0.10;99.90;;;;;;5015493;28;20021;-84
2023/12/07 05:30:13;;;;;;;62.75;30.13;;;0.20;99.90;;;;;;5013265;28;20022;-84
2023/12/07 05:32:39;;;;;;;51.28;27.73;;;0.20;99.90;;;;;;5013571;28;20068;-84
2023/12/07 05:35:05;;;;;;;50.03;25.00;;;0.10;99.90;;;;;;5025413;28;20052;-85
2023/12/07 05:37:31;;;;;;;52.58;25.13;;;0.20;99.90;;;;;;5030540;28;20451;-84
2023/12/07 05:39:57;;;;;;;58.97;28.83;;;0.20;99.90;;;;;;5028222;28;20057;-85
2023/12/07 05:42:22;;;;;;;52.75;24.92;;;0.20;99.90;;;;;;5008901;28;20025;-85
2023/12/07 05:44:48;;;;;;;53.55;26.63;;;0.20;99.90;;;;;;5008916;28;20037;-83
2023/12/07 05:47:13;;;;;;;44.85;24.00;;;0.20;99.90;;;;;;5004373;28;20232;-84
2023/12/07 05:49:39;;;;;;;52.70;24.63;;;0.10;99.90;;;;;;5011660;28;20075;-84
2023/12/07 05:52:05;;;;;;;44.45;24.02;;;0.20;99.90;;;;;;5012616;28;20029;-85
2023/12/07 05:54:30;;;;;;;52.45;25.83;;;0.10;99.90;;;;;;5006361;28;20029;-84
2023/12/07 05:56:56;;;;;;;52.72;27.33;;;0.10;99.90;;;;;;5008958;28;20025;-85
2023/12/07 05:59:22;;;;;;;41.10;23.42;;;0.20;99.90;;;;;;5008802;28;20021;-85
2023/12/07 06:01:47;;;;;;;50.08;25.20;;;0.10;99.90;;;;;;5025747;28;20346;-85
2023/12/07 06:04:13;;;;;;;51.92;24.33;;;0.20;99.90;;;;;;5027962;28;20020;-84
2023/12/07 06:06:39;;;;;;;46.03;23.88;;;0.10;99.90;;;;;;5017627;28;20075;-84
2023/12/07 06:09:05;;;;;;;44.45;23.45;;;0.10;99.90;;;;;;5010602;28;20026;-85
2023/12/07 06:11:31;;;;;;;38.17;21.00;;;0.20;99.90;;;;;;5009223;28;20100;-84
2023/12/07 06:13:59;;;;;;;41.05;22.38;;;0.10;99.90;;;;;;5026429;28;20028;-84
2023/12/07 06:16:25;;;;;;;43.97;22.73;;;0.10;99.90;;;;;;5004058;28;20024;-85
2023/12/07 06:18:51;;;;;;;41.95;24.58;;;0.10;99.90;;;;;;5008732;28;20036;-86
2023/12/07 06:21:16;;;;;;;43.92;24.05;;;0.10;99.90;;;;;;5007348;28;20063;-84
2023/12/07 06:23:42;;;;;;;42.30;23.23;;;0.10;99.90;;;;;;5012287;28;20022;-85
2023/12/07 06:26:07;;;;;;;41.35;23.48;;;0.20;99.90;;;;;;5013253;28;20025;-84
2023/12/07 06:28:33;;;;;;;49.47;24.98;;;0.10;99.90;;;;;;5009735;28;20110;-85
2023/12/07 06:31:05;;;;;;;42.30;22.77;;;0.20;99.90;;;;;;5026023;28;20028;-84
2023/12/07 06:33:31;;;;;;;42.47;24.02;;;0.20;99.90;;;;;;5009240;28;20051;-84
2023/12/07 06:35:56;;;;;;;47.60;24.75;;;0.10;99.90;;;;;;5009428;28;20377;-85
2023/12/07 06:38:22;;;;;;;43.83;23.77;;;0.20;99.90;;;;;;5010733;28;20025;-84
2023/12/07 06:40:48;;;;;;;45.22;21.35;;;0.20;99.90;;;;;;5009404;28;20025;-84
2023/12/07 06:43:14;;;;;;;40.22;22.45;;;0.20;99.90;;;;;;5012331;28;20053;-85
2023/12/07 06:45:40;;;;;;;52.97;25.83;;;0.10;99.90;;;;;;5009305;28;20114;-85
2023/12/07 06:48:05;;;;;;;62.00;30.15;;;0.10;99.90;;;;;;5027339;28;20021;-86
2023/12/07 06:50:31;;;;;;;51.60;27.42;;;0.20;99.90;;;;;;5014744;28;20014;-85
2023/12/07 06:52:57;;;;;;;51.13;25.55;;;0.20;99.90;;;;;;5013300;28;20025;-85
2023/12/07 06:55:22;;;;;;;54.75;28.30;;;0.20;99.90;;;;;;5009390;28;20013;-84
2023/12/07 06:57:48;;;;;;;48.65;26.30;;;0.20;99.90;;;;;;5004773;28;20167;-85
2023/12/07 07:00:14;;;;;;;52.25;24.95;;;0.20;99.90;;;;;;5008555;28;20037;-85
2023/12/07 07:02:39;;;;;;;52.83;25.02;;;0.20;99.90;;;;;;5007998;28;20034;-84
2023/12/07 07:05:06;;;;;;;48.85;24.73;;;0.20;99.90;;;;;;5011026;28;20113;-84
2023/12/07 07:07:32;;;;;;;49.75;24.70;;;0.20;99.90;;;;;;5006400;28;20066;-85
2023/12/07 07:09:57;;;;;;;45.72;26.30;;;0.20;99.90;;;;;;5010634;28;20704;-84
2023/12/07 07:12:23;;;;;;;49.97;28.30;;;0.20;99.90;;;;;;5013930;28;20038;-85
2023/12/07 07:14:49;;;;;;;50.83;28.63;;;0.20;99.90;;;;;;5010173;28;20065;-85
2023/12/07 07:17:15;;;;;;;54.90;26.70;;;0.20;99.90;;;;;;5011183;28;20049;-86
2023/12/07 07:19:41;;;;;;;49.67;25.42;;;0.20;99.90;;;;;;5015647;28;20030;-86
2023/12/07 07:22:06;;;;;;;45.85;24.65;;;0.20;99.90;;;;;;5012566;28;20036;-85
2023/12/07 07:24:32;;;;;;;45.78;24.15;;;0.20;99.90;;;;;;5018150;28;20029;-85
2023/12/07 07:26:57;;;;;;;48.95;24.50;;;0.20;99.90;;;;;;5029008;28;20022;-85
2023/12/07 07:29:23;;;;;;;50.67;25.08;;;0.20;99.90;;;;;;5016015;28;20033;-86
2023/12/07 07:31:48;;;;;;;45.50;22.35;;;0.20;99.90;;;;;;5016062;28;20022;-85
2023/12/07 07:34:14;;;;;;;51.90;25.77;;;0.20;99.90;;;;;;5016142;28;20017;-85
2023/12/07 07:36:39;;;;;;;54.42;29.60;;;0.20;99.90;;;;;;5011864;28;20026;-86
2023/12/07 07:39:07;;;;;;;60.50;32.78;;;0.20;99.90;;;;;;5016649;28;20052;-85
2023/12/07 07:41:33;;;;;;;47.38;27.52;;;0.20;99.90;;;;;;5011510;28;20484;-85
2023/12/07 07:43:59;;;;;;;53.40;27.15;;;0.20;99.90;;;;;;5010418;28;20116;-85
2023/12/07 07:46:24;;;;;;;43.90;23.70;;;0.20;99.90;;;;;;5015298;28;20120;-83
2023/12/07 07:48:50;;;;;;;53.72;26.95;;;0.20;99.90;;;;;;5012806;28;20120;-85
2023/12/07 07:51:16;;;;;;;49.58;24.38;;;0.30;99.90;;;;;;5014865;28;20112;-85
2023/12/07 07:53:41;;;;;;;43.92;23.48;;;0.20;99.90;;;;;;5027709;28;20022;-85
2023/12/07 07:56:08;;;;;;;53.22;26.58;;;0.20;99.90;;;;;;5018097;28;20244;-86
2023/12/07 07:58:34;;;;;;;48.20;24.00;;;0.30;99.90;;;;;;5015590;28;20339;-86
2023/12/07 08:01:00;;;;;;;50.22;23.70;;;0.30;99.90;;;;;;5012767;28;20036;-85
2023/12/07 08:03:25;;;;;;;51.38;23.83;;;0.30;99.90;;;;;;5011160;28;20022;-85
2023/12/07 08:05:51;;;;;;;42.00;22.10;;;0.30;99.90;;;;;;5011652;28;20026;-86
2023/12/07 08:08:51;;;;;;;53.63;25.67;;;0.30;99.90;;;;;;5014994;28;20122;-86
2023/12/07 08:11:16;;;;;;;48.95;23.77;;;0.30;99.90;;;;;;5029251;28;20028;-86
2023/12/07 08:13:42;;;;;;;43.65;23.50;;;0.30;99.90;;;;;;5014261;28;20138;-85
2023/12/07 08:16:09;;;;;;;51.05;25.65;;;0.30;99.90;;;;;;5018430;28;20025;-85
2023/12/07 08:18:34;;;;;;;42.97;23.73;;;0.30;99.90;;;;;;5015953;28;20123;-85
2023/12/07 08:21:01;;;;;;;47.72;26.17;;;0.30;99.90;;;;;;5008146;28;20141;-86
2023/12/07 08:23:27;;;;;;;75.07;35.58;;;0.30;99.90;;;;;;5018179;28;20065;-87
2023/12/07 08:25:52;;;;;;;64.22;33.90;;;0.40;99.90;;;;;;5020534;28;20041;-86
2023/12/07 08:28:18;;;;;;;51.50;29.10;;;0.40;99.90;;;;;;5012545;28;20465;-86
2023/12/07 08:30:44;;;;;;;45.42;24.60;;;0.40;99.90;;;;;;5015046;28;20026;-86
2023/12/07 08:33:09;;;;;;;45.50;24.23;;;0.40;99.90;;;;;;5011486;28;20093;-86
2023/12/07 08:35:35;;;;;;;38.42;21.73;;;0.40;99.90;;;;;;5015895;28;20035;-86
2023/12/07 08:38:00;;;;;;;40.63;23.15;;;0.40;99.90;;;;;;5016706;28;20040;-86
2023/12/07 08:41:04;;;;;;;;;;;;;;;;;;;;;
2023/12/07 08:44:27;;;;;;;41.92;24.65;;;0.40;99.90;;;;;;5026657;28;20052;-86
2023/12/07 08:46:53;;;;;;;33.70;22.38;;;0.40;99.90;;;;;;5026149;28;20046;-86
2023/12/07 08:49:21;;;;;;;58.47;28.23;;;0.50;99.90;;;;;;5017678;28;20036;-85
2023/12/07 08:51:46;;;;;;;44.78;24.92;;;0.40;99.90;;;;;;5014882;28;20036;-86
2023/12/07 08:54:12;;;;;;;44.08;23.90;;;0.50;99.90;;;;;;5009630;28;20029;-85
2023/12/07 08:56:37;;;;;;;40.22;23.35;;;0.50;99.90;;;;;;5007583;28;20432;-86
2023/12/07 08:59:03;;;;;;;41.83;25.02;;;0.50;99.90;;;;;;5007466;28;20481;-85
2023/12/07 09:01:30;;;;;;;45.28;25.95;;;0.60;99.90;;;;;;5022157;28;20056;-85
2023/12/07 09:03:55;;;;;;;46.42;23.45;;;0.60;99.90;;;;;;5013229;28;20022;-85
2023/12/07 09:06:21;;;;;;;47.08;25.77;;;0.60;99.90;;;;;;5018381;28;20040;-85
2023/12/07 09:08:47;;;;;;;43.95;24.08;;;0.60;99.90;;;;;;5015162;28;20022;-85
2023/12/07 09:11:12;;;;;;;41.35;24.20;;;0.60;99.90;;;;;;5016076;28;20021;-85
2023/12/07 09:13:38;;;;;;;47.97;23.88;;;0.60;99.90;;;;;;5015098;28;20116;-86
2023/12/07 09:16:04;;;;;;;46.08;26.42;;;0.70;99.90;;;;;;5015976;28;20664;-85
2023/12/07 09:18:30;;;;;;;46.83;24.65;;;0.70;99.90;;;;;;5011646;28;20048;-86
2023/12/07 09:20:55;;;;;;;50.00;25.48;;;0.80;99.90;;;;;;5009263;28;20025;-86
2023/12/07 09:23:21;;;;;;;43.25;24.70;;;0.90;99.90;;;;;;5011393;28;20018;-86
2023/12/07 09:25:47;;;;;;;55.83;28.45;;;0.90;99.90;;;;;;5022859;28;20013;-86
2023/12/07 09:28:12;;;;;;;48.78;26.90;;;1.00;99.90;;;;;;5011283;28;20103;-85
2023/12/07 09:30:38;;;;;;;51.15;27.58;;;1.10;99.90;;;;;;5016219;28;20037;-85
2023/12/07 09:33:04;;;;;;;47.90;27.27;;;1.20;99.90;;;;;;5015203;28;20021;-85
2023/12/07 09:35:30;;;;;;;44.22;26.30;;;1.20;99.90;;;;;;5013135;28;20432;-84
2023/12/07 09:37:55;;;;;;;51.20;28.73;;;1.30;99.90;;;;;;5013500;28;20040;-84
2023/12/07 09:40:23;;;;;;;59.05;29.85;;;1.30;99.90;;;;;;5009432;28;20405;-85
2023/12/07 09:42:49;;;;;;;54.88;29.67;;;1.30;99.90;;;;;;5012471;28;20037;-85
2023/12/07 09:45:18;;;;;;;58.42;29.52;;;1.40;99.90;;;;;;5014355;28;20049;-85
2023/12/07 09:47:46;;;;;;;61.40;32.15;;;1.40;99.90;;;;;;5013962;28;20037;-86
2023/12/07 09:50:13;;;;;;;58.20;30.85;;;1.50;99.90;;;;;;5013042;28;20453;-87
2023/12/07 09:52:40;;;;;;;50.83;28.52;;;1.50;99.90;;;;;;5015149;28;20037;-85
2023/12/07 09:55:06;;;;;;;55.33;30.27;;;1.40;99.90;;;;;;5012743;28;20048;-86
2023/12/07 09:57:33;;;;;;;50.08;26.80;;;1.40;99.90;;;;;;5013062;28;20037;-86
2023/12/07 09:59:59;;;;;;;49.63;26.75;;;1.30;99.90;;;;;;5009109;28;20033;-85
2023/12/07 10:02:26;;;;;;;46.92;27.15;;;1.30;99.90;;;;;;5010317;28;20132;-86
2023/12/07 10:06:12;;;;;;;51.83;27.75;;;1.30;99.90;;;;;;5012618;28;20036;-86
2023/12/07 10:08:38;;;;;;;52.38;27.75;;;1.30;99.90;;;;;;5013606;28;20401;-87
2023/12/07 10:11:14;;;;;;;57.78;29.63;;;1.30;99.90;;;;;;5008500;28;20132;-86
2023/12/07 10:13:40;;;;;;;61.25;31.45;;;1.20;99.90;;;;;;5012610;28;20029;-87
2023/12/07 10:16:11;;;;;;;64.50;29.83;;;1.20;99.90;;;;;;5009686;28;20038;-87
2023/12/07 10:18:37;;;;;;;58.30;29.75;;;1.30;99.90;;;;;;5005621;28;20030;-87
2023/12/07 10:21:03;;;;;;;52.35;28.55;;;1.30;99.90;;;;;;5009753;28;20041;-86
2023/12/07 10:23:31;;;;;;;59.28;27.75;;;1.20;99.90;;;;;;5007915;28;20525;-86
2023/12/07 10:25:59;;;;;;;59.92;29.50;;;1.20;99.90;;;;;;5012844;28;20104;-87
2023/12/07 10:28:25;;;;;;;59.40;29.75;;;1.30;99.90;;;;;;5013771;28;20095;-86
2023/12/07 10:30:51;;;;;;;61.78;30.75;;;1.20;99.90;;;;;;5010604;28;20429;-87
2023/12/07 10:33:19;;;;;;;56.90;31.02;;;1.20;99.90;;;;;;5017800;28;20017;-87
2023/12/07 10:35:44;;;;;;;54.40;27.70;;;1.20;99.90;;;;;;5033255;28;20029;-87
2023/12/07 10:38:10;;;;;;;55.88;28.92;;;1.30;99.90;;;;;;5033277;28;20029;-88
2023/12/07 10:40:36;;;;;;;63.75;31.50;;;1.30;99.90;;;;;;5012578;28;20021;-87
2023/12/07 10:43:05;;;;;;;65.82;29.55;;;1.30;99.90;;;;;;5012882;28;20032;-87
2023/12/07 10:45:32;;;;;;;65.72;31.60;;;1.30;99.90;;;;;;5012772;28;20166;-87
2023/12/07 10:48:06;;;;;;;62.15;30.48;;;1.30;99.90;;;;;;5021883;28;20461;-87
2023/12/07 10:50:36;;;;;;;64.15;31.08;;;1.30;99.90;;;;;;5023781;28;20047;-86
2023/12/07 10:53:10;;;;;;;66.88;34.00;;;1.30;99.90;;;;;;5010678;28;20120;-87
2023/12/07 10:55:45;;;;;;;56.83;31.25;;;1.30;99.90;;;;;;5013934;28;20018;-86
2023/12/07 10:58:13;;;;;;;59.95;31.05;;;1.30;99.90;;;;;;5017122;28;20057;-86
2023/12/07 11:00:44;;;;;;;56.25;29.08;;;1.30;99.90;;;;;;5021657;28;20055;-87
2023/12/07 11:03:10;;;;;;;57.22;29.20;;;1.30;99.90;;;;;;5017033;28;20031;-86
2023/12/07 11:05:35;;;;;;;61.72;29.48;;;1.40;99.90;;;;;;5020326;28;20119;-86
2023/12/07 11:08:09;;;;;;;61.15;31.48;;;1.30;99.90;;;;;;5017151;28;21554;-86
2023/12/07 11:10:48;;;;;;;63.17;31.73;;;1.30;99.90;;;;;;5019595;28;20149;-86
2023/12/07 11:13:28;;;;;;;55.60;28.95;;;1.40;99.90;;;;;;5014846;28;20021;-86
2023/12/07 11:15:55;;;;;;;60.20;28.70;;;1.40;99.90;;;;;;5017167;28;20064;-86
2023/12/07 11:18:21;;;;;;;61.25;33.97;;;1.40;99.90;;;;;;5013376;28;20048;-86
2023/12/07 11:20:47;;;;;;;89.93;39.88;;;1.40;99.90;;;;;;5023268;28;20037;-86
2023/12/07 11:23:20;;;;;;;84.85;43.03;;;1.40;99.90;;;;;;5016185;28;20092;-86
2023/12/07 11:25:47;;;;;;;77.57;38.38;;;1.40;99.90;;;;;;5021233;28;20041;-87
2023/12/07 11:28:13;;;;;;;75.88;39.85;;;1.40;99.90;;;;;;5015594;28;20606;-85
2023/12/07 11:30:43;;;;;;;68.25;34.55;;;1.40;99.90;;;;;;5019582;28;20032;-85
2023/12/07 11:33:11;;;;;;;62.92;33.38;;;1.40;99.90;;;;;;5021445;28;20022;-85
2023/12/07 11:36:03;;;;;;;61.50;32.90;;;1.40;99.90;;;;;;5020145;28;20044;-85
2023/12/07 11:38:29;;;;;;;56.85;31.80;;;1.40;99.90;;;;;;5021532;28;20099;-86
2023/12/07 11:40:55;;;;;;;58.45;29.73;;;1.40;99.90;;;;;;5019769;28;20041;-86
2023/12/07 11:43:35;;;;;;;55.60;29.50;;;1.40;99.90;;;;;;5014213;28;20029;-86
2023/12/07 11:46:01;;;;;;;55.13;31.92;;;1.40;99.90;;;;;;5027381;28;20061;-86
2023/12/07 11:48:27;;;;;;;61.35;33.67;;;1.40;99.90;;;;;;5025576;28;20029;-86
2023/12/07 11:51:04;;;;;;;64.68;33.05;;;1.50;99.90;;;;;;5020019;28;20045;-86
2023/12/07 11:53:37;;;;;;;54.90;29.98;;;1.40;99.90;;;;;;5017078;28;20339;-85
2023/12/07 11:56:08;;;;;;;59.80;30.08;;;1.40;99.90;;;;;;5031361;28;20025;-86
2023/12/07 11:58:36;;;;;;;61.15;30.50;;;1.40;99.90;;;;;;5019895;28;20532;-87
2023/12/07 12:01:02;;;;;;;51.72;28.65;;;1.40;99.90;;;;;;5016069;28;20025;-86
2023/12/07 12:03:29;;;;;;;46.92;26.63;;;1.40;99.90;;;;;;5020996;28;20120;-86
2023/12/07 12:05:56;;;;;;;51.08;28.25;;;1.30;99.90;;;;;;5023481;28;20035;-86
2023/12/07 12:08:22;;;;;;;53.65;27.77;;;1.30;99.90;;;;;;5018867;28;20030;-86
2023/12/07 12:10:51;;;;;;;49.28;29.05;;;1.30;99.90;;;;;;5021115;28;20025;-86
2023/12/07 12:13:16;;;;;;;57.13;29.40;;;1.30;99.90;;;;;;5019458;28;20578;-85
2023/12/07 12:15:42;;;;;;;47.80;27.75;;;1.40;99.90;;;;;;5016251;28;20056;-87
2023/12/07 12:18:09;;;;;;;44.85;25.15;;;1.30;99.90;;;;;;5018547;28;20279;-86
2023/12/07 12:20:35;;;;;;;44.97;23.50;;;1.30;99.90;;;;;;5018719;28;20025;-86
2023/12/07 12:23:01;;;;;;;42.92;24.92;;;1.30;99.90;;;;;;5013643;28;20293;-86
2023/12/07 12:25:30;;;;;;;47.97;27.33;;;1.30;99.90;;;;;;5037106;28;20500;-86
2023/12/07 12:27:58;;;;;;;44.25;25.95;;;1.30;99.90;;;;;;5016329;28;20427;-86
2023/12/07 12:30:24;;;;;;;43.28;23.92;;;1.30;99.90;;;;;;5010500;28;20018;-87
2023/12/07 12:32:50;;;;;;;43.53;25.00;;;1.40;99.90;;;;;;5011863;28;20032;-86
2023/12/07 12:35:17;;;;;;;42.47;23.70;;;1.40;99.90;;;;;;5009903;28;20135;-86
2023/12/07 12:37:44;;;;;;;43.33;24.55;;;1.40;99.90;;;;;;5017117;28;20116;-87